sensor_id;sensor_type;location;lat;lon;timestamp;temperature;humidity
52725;DHT22;38621;52.830;6.914;2022-10-31T00:00:07;13.00;99.90
52725;DHT22;38621;52.830;6.914;2022-10-31T00:02:33;12.90;99.90
52725;DHT22;38621;52.830;6.914;2022-10-31T00:04:59;12.80;99.90
52725;DHT22;38621;52.830;6.914;2022-10-31T00:07:25;12.80;99.90
52725;DHT22;38621;52.830;6.914;2022-10-31T00:09:50;12.70;99.90
52725;DHT22;38621;52.830;6.914;2022-10-31T00:12:16;12.70;99.90
52725;DHT22;38621;52.830;6.914;2022-10-31T00:14:42;12.60;99.90
52725;DHT22;38621;52.830;6.914;2022-10-31T00:17:07;12.60;99.90
52725;DHT22;38621;52.830;6.914;2022-10-31T00:19:33;12.60;99.90
52725;DHT22;38621;52.830;6.914;2022-10-31T00:21:58;12.60;99.90
52725;DHT22;38621;52.830;6.914;2022-10-31T00:24:24;12.60;99.90
52725;DHT22;38621;52.830;6.914;2022-10-31T00:26:50;12.50;99.90
52725;DHT22;38621;52.830;6.914;2022-10-31T00:29:15;12.50;99.90
52725;DHT22;38621;52.830;6.914;2022-10-31T00:31:41;12.50;99.90
52725;DHT22;38621;52.830;6.914;2022-10-31T00:34:06;12.50;99.90
52725;DHT22;38621;52.830;6.914;2022-10-31T00:36:32;12.50;99.90
52725;DHT22;38621;52.830;6.914;2022-10-31T00:38:58;12.40;99.90
52725;DHT22;38621;52.830;6.914;2022-10-31T00:41:24;12.40;99.90
52725;DHT22;38621;52.830;6.914;2022-10-31T00:43:50;12.40;99.90
52725;DHT22;38621;52.830;6.914;2022-10-31T00:46:16;12.40;99.90
52725;DHT22;38621;52.830;6.914;2022-10-31T00:48:42;12.40;99.90
52725;DHT22;38621;52.830;6.914;2022-10-31T00:51:08;12.40;99.90
52725;DHT22;38621;52.830;6.914;2022-10-31T00:53:34;12.40;99.90
52725;DHT22;38621;52.830;6.914;2022-10-31T00:55:59;12.40;99.90
52725;DHT22;38621;52.830;6.914;2022-10-31T00:58:25;12.40;99.90
52725;DHT22;38621;52.830;6.914;2022-10-31T01:00:51;12.40;99.90
52725;DHT22;38621;52.830;6.914;2022-10-31T01:03:22;12.30;99.90
52725;DHT22;38621;52.830;6.914;2022-10-31T01:06:03;12.30;99.90
52725;DHT22;38621;52.830;6.914;2022-10-31T01:08:29;12.30;99.90
52725;DHT22;38621;52.830;6.914;2022-10-31T01:13:28;12.30;99.90
52725;DHT22;38621;52.830;6.914;2022-10-31T01:15:58;12.30;99.90
52725;DHT22;38621;52.830;6.914;2022-10-31T01:18:25;12.30;99.90
52725;DHT22;38621;52.830;6.914;2022-10-31T01:21:03;12.40;99.90
52725;DHT22;38621;52.830;6.914;2022-10-31T01:23:29;12.40;99.90
52725;DHT22;38621;52.830;6.914;2022-10-31T01:28:30;12.30;99.90
52725;DHT22;38621;52.830;6.914;2022-10-31T01:31:00;12.30;99.90
52725;DHT22;38621;52.830;6.914;2022-10-31T01:33:26;12.30;99.90
52725;DHT22;38621;52.830;6.914;2022-10-31T01:35:52;12.20;99.90
52725;DHT22;38621;52.830;6.914;2022-10-31T01:38:18;12.10;99.90
52725;DHT22;38621;52.830;6.914;2022-10-31T01:40:43;12.00;99.90
52725;DHT22;38621;52.830;6.914;2022-10-31T01:43:13;11.90;99.90
52725;DHT22;38621;52.830;6.914;2022-10-31T01:45:41;11.90;99.90
52725;DHT22;38621;52.830;6.914;2022-10-31T01:48:14;11.90;99.90
52725;DHT22;38621;52.830;6.914;2022-10-31T01:50:41;11.90;99.90
52725;DHT22;38621;52.830;6.914;2022-10-31T01:53:10;11.90;99.90
52725;DHT22;38621;52.830;6.914;2022-10-31T01:55:40;12.00;99.90
52725;DHT22;38621;52.830;6.914;2022-10-31T01:58:26;12.00;99.90
52725;DHT22;38621;52.830;6.914;2022-10-31T02:00:57;11.90;99.90
52725;DHT22;38621;52.830;6.914;2022-10-31T02:03:23;12.00;99.90
52725;DHT22;38621;52.830;6.914;2022-10-31T02:05:53;12.00;99.90
52725;DHT22;38621;52.830;6.914;2022-10-31T02:08:28;12.00;99.90
52725;DHT22;38621;52.830;6.914;2022-10-31T02:10:56;11.90;99.90
52725;DHT22;38621;52.830;6.914;2022-10-31T02:13:22;11.90;99.90
52725;DHT22;38621;52.830;6.914;2022-10-31T02:15:53;11.90;99.90
52725;DHT22;38621;52.830;6.914;2022-10-31T02:18:20;11.90;99.90
52725;DHT22;38621;52.830;6.914;2022-10-31T02:23:45;11.90;99.90
52725;DHT22;38621;52.830;6.914;2022-10-31T02:32:43;11.80;99.90
52725;DHT22;38621;52.830;6.914;2022-10-31T02:37:47;11.70;99.90
52725;DHT22;38621;52.830;6.914;2022-10-31T02:43:02;11.70;99.90
52725;DHT22;38621;52.830;6.914;2022-10-31T02:45:39;11.80;99.90
52725;DHT22;38621;52.830;6.914;2022-10-31T02:48:12;11.70;99.90
52725;DHT22;38621;52.830;6.914;2022-10-31T02:50:42;11.70;99.90
52725;DHT22;38621;52.830;6.914;2022-10-31T02:53:09;11.70;99.90
52725;DHT22;38621;52.830;6.914;2022-10-31T02:58:08;11.70;99.90
52725;DHT22;38621;52.830;6.914;2022-10-31T03:11:09;11.60;99.90
52725;DHT22;38621;52.830;6.914;2022-10-31T03:13:51;11.40;99.90
52725;DHT22;38621;52.830;6.914;2022-10-31T03:23:59;11.40;99.90
52725;DHT22;38621;52.830;6.914;2022-10-31T03:26:26;11.40;99.90
52725;DHT22;38621;52.830;6.914;2022-10-31T03:28:59;11.30;99.90
52725;DHT22;38621;52.830;6.914;2022-10-31T03:31:32;11.20;99.90
52725;DHT22;38621;52.830;6.914;2022-10-31T03:34:01;11.20;99.90
52725;DHT22;38621;52.830;6.914;2022-10-31T03:36:29;11.20;99.90
52725;DHT22;38621;52.830;6.914;2022-10-31T03:38:57;11.20;99.90
52725;DHT22;38621;52.830;6.914;2022-10-31T03:41:28;11.10;99.90
52725;DHT22;38621;52.830;6.914;2022-10-31T03:44:03;11.10;99.90
52725;DHT22;38621;52.830;6.914;2022-10-31T03:46:32;11.10;99.90
52725;DHT22;38621;52.830;6.914;2022-10-31T03:48:58;11.10;99.90
52725;DHT22;38621;52.830;6.914;2022-10-31T03:51:38;11.20;99.90
52725;DHT22;38621;52.830;6.914;2022-10-31T03:54:09;11.20;99.90
52725;DHT22;38621;52.830;6.914;2022-10-31T03:56:48;11.20;99.90
52725;DHT22;38621;52.830;6.914;2022-10-31T03:59:35;11.20;99.90
52725;DHT22;38621;52.830;6.914;2022-10-31T04:02:14;11.20;99.90
52725;DHT22;38621;52.830;6.914;2022-10-31T04:04:42;11.20;99.90
52725;DHT22;38621;52.830;6.914;2022-10-31T04:07:10;11.20;99.90
52725;DHT22;38621;52.830;6.914;2022-10-31T04:09:39;11.20;99.90
52725;DHT22;38621;52.830;6.914;2022-10-31T04:12:08;11.10;99.90
52725;DHT22;38621;52.830;6.914;2022-10-31T04:14:39;11.10;99.90
52725;DHT22;38621;52.830;6.914;2022-10-31T04:17:09;11.10;99.90
52725;DHT22;38621;52.830;6.914;2022-10-31T04:19:36;11.10;99.90
52725;DHT22;38621;52.830;6.914;2022-10-31T04:22:02;11.10;99.90
52725;DHT22;38621;52.830;6.914;2022-10-31T04:24:27;11.10;99.90
52725;DHT22;38621;52.830;6.914;2022-10-31T04:26:53;11.00;99.90
52725;DHT22;38621;52.830;6.914;2022-10-31T04:29:19;11.00;99.90
52725;DHT22;38621;52.830;6.914;2022-10-31T04:31:44;11.00;99.90
52725;DHT22;38621;52.830;6.914;2022-10-31T04:34:10;10.90;99.90
52725;DHT22;38621;52.830;6.914;2022-10-31T04:36:35;10.90;99.90
52725;DHT22;38621;52.830;6.914;2022-10-31T04:39:01;10.80;99.90
52725;DHT22;38621;52.830;6.914;2022-10-31T04:41:27;10.90;99.90
52725;DHT22;38621;52.830;6.914;2022-10-31T04:43:52;10.80;99.90
52725;DHT22;38621;52.830;6.914;2022-10-31T04:46:18;10.80;99.90
52725;DHT22;38621;52.830;6.914;2022-10-31T04:48:44;10.70;99.90
52725;DHT22;38621;52.830;6.914;2022-10-31T04:51:09;10.60;99.90
52725;DHT22;38621;52.830;6.914;2022-10-31T04:53:35;10.50;99.90
52725;DHT22;38621;52.830;6.914;2022-10-31T04:56:01;10.30;99.90
52725;DHT22;38621;52.830;6.914;2022-10-31T04:58:27;10.30;99.90
52725;DHT22;38621;52.830;6.914;2022-10-31T05:00:54;10.20;99.90
52725;DHT22;38621;52.830;6.914;2022-10-31T05:03:20;10.20;99.90
52725;DHT22;38621;52.830;6.914;2022-10-31T05:05:46;10.20;99.90
52725;DHT22;38621;52.830;6.914;2022-10-31T05:08:11;10.10;99.90
52725;DHT22;38621;52.830;6.914;2022-10-31T05:10:37;10.10;99.90
52725;DHT22;38621;52.830;6.914;2022-10-31T05:13:03;10.20;99.90
52725;DHT22;38621;52.830;6.914;2022-10-31T05:15:30;10.10;99.90
52725;DHT22;38621;52.830;6.914;2022-10-31T05:17:56;10.00;99.90
52725;DHT22;38621;52.830;6.914;2022-10-31T05:20:25;10.00;99.90
52725;DHT22;38621;52.830;6.914;2022-10-31T05:22:55;9.90;99.90
52725;DHT22;38621;52.830;6.914;2022-10-31T05:25:23;9.90;99.90
52725;DHT22;38621;52.830;6.914;2022-10-31T05:27:51;9.90;99.90
52725;DHT22;38621;52.830;6.914;2022-10-31T05:30:19;9.90;99.90
52725;DHT22;38621;52.830;6.914;2022-10-31T05:32:47;9.80;99.90
52725;DHT22;38621;52.830;6.914;2022-10-31T05:35:16;9.70;99.90
52725;DHT22;38621;52.830;6.914;2022-10-31T05:37:42;9.60;99.90
52725;DHT22;38621;52.830;6.914;2022-10-31T05:40:10;9.60;99.90
52725;DHT22;38621;52.830;6.914;2022-10-31T05:42:38;9.50;99.90
52725;DHT22;38621;52.830;6.914;2022-10-31T05:45:04;9.40;99.90
52725;DHT22;38621;52.830;6.914;2022-10-31T05:47:30;9.40;99.90
52725;DHT22;38621;52.830;6.914;2022-10-31T05:49:56;9.40;99.90
52725;DHT22;38621;52.830;6.914;2022-10-31T05:52:22;9.40;99.90
52725;DHT22;38621;52.830;6.914;2022-10-31T05:54:47;9.50;99.90
52725;DHT22;38621;52.830;6.914;2022-10-31T05:57:13;9.40;99.90
52725;DHT22;38621;52.830;6.914;2022-10-31T05:59:39;9.50;99.90
52725;DHT22;38621;52.830;6.914;2022-10-31T06:02:04;9.40;99.90
52725;DHT22;38621;52.830;6.914;2022-10-31T06:04:30;9.50;99.90
52725;DHT22;38621;52.830;6.914;2022-10-31T06:06:56;9.50;99.90
52725;DHT22;38621;52.830;6.914;2022-10-31T06:09:22;9.50;99.90
52725;DHT22;38621;52.830;6.914;2022-10-31T06:11:48;9.50;99.90
52725;DHT22;38621;52.830;6.914;2022-10-31T06:14:13;9.60;99.90
52725;DHT22;38621;52.830;6.914;2022-10-31T06:16:39;9.40;99.90
52725;DHT22;38621;52.830;6.914;2022-10-31T06:19:05;9.30;99.90
52725;DHT22;38621;52.830;6.914;2022-10-31T06:21:31;9.30;99.90
52725;DHT22;38621;52.830;6.914;2022-10-31T06:23:57;9.30;99.90
52725;DHT22;38621;52.830;6.914;2022-10-31T06:26:22;9.20;99.90
52725;DHT22;38621;52.830;6.914;2022-10-31T06:28:48;9.20;99.90
52725;DHT22;38621;52.830;6.914;2022-10-31T06:31:14;9.20;99.90
52725;DHT22;38621;52.830;6.914;2022-10-31T06:33:41;9.20;99.90
52725;DHT22;38621;52.830;6.914;2022-10-31T06:36:08;9.30;99.90
52725;DHT22;38621;52.830;6.914;2022-10-31T06:38:34;9.30;99.90
52725;DHT22;38621;52.830;6.914;2022-10-31T06:41:06;9.30;99.90
52725;DHT22;38621;52.830;6.914;2022-10-31T06:43:32;9.30;99.90
52725;DHT22;38621;52.830;6.914;2022-10-31T06:46:02;9.40;99.90
52725;DHT22;38621;52.830;6.914;2022-10-31T06:48:28;9.40;99.90
52725;DHT22;38621;52.830;6.914;2022-10-31T06:51:00;9.30;99.90
52725;DHT22;38621;52.830;6.914;2022-10-31T06:53:27;9.30;99.90
52725;DHT22;38621;52.830;6.914;2022-10-31T06:55:55;9.20;99.90
52725;DHT22;38621;52.830;6.914;2022-10-31T06:58:21;9.20;99.90
52725;DHT22;38621;52.830;6.914;2022-10-31T07:00:47;9.20;99.90
52725;DHT22;38621;52.830;6.914;2022-10-31T07:03:14;9.30;99.90
52725;DHT22;38621;52.830;6.914;2022-10-31T07:05:41;9.20;99.90
52725;DHT22;38621;52.830;6.914;2022-10-31T07:08:09;9.30;99.90
52725;DHT22;38621;52.830;6.914;2022-10-31T07:10:36;9.20;99.90
52725;DHT22;38621;52.830;6.914;2022-10-31T07:13:04;9.30;99.90
52725;DHT22;38621;52.830;6.914;2022-10-31T07:15:36;9.40;99.90
52725;DHT22;38621;52.830;6.914;2022-10-31T07:18:03;9.40;99.90
52725;DHT22;38621;52.830;6.914;2022-10-31T07:20:29;9.40;99.90
52725;DHT22;38621;52.830;6.914;2022-10-31T07:22:55;9.40;99.90
52725;DHT22;38621;52.830;6.914;2022-10-31T07:25:21;9.50;99.90
52725;DHT22;38621;52.830;6.914;2022-10-31T07:27:47;9.60;99.90
52725;DHT22;38621;52.830;6.914;2022-10-31T07:30:13;9.60;99.90
52725;DHT22;38621;52.830;6.914;2022-10-31T07:32:43;9.60;99.90
52725;DHT22;38621;52.830;6.914;2022-10-31T07:35:11;9.60;99.90
52725;DHT22;38621;52.830;6.914;2022-10-31T07:37:36;9.60;99.90
52725;DHT22;38621;52.830;6.914;2022-10-31T07:40:04;9.70;99.90
52725;DHT22;38621;52.830;6.914;2022-10-31T07:42:50;9.70;99.90
52725;DHT22;38621;52.830;6.914;2022-10-31T07:45:18;9.70;99.90
52725;DHT22;38621;52.830;6.914;2022-10-31T07:47:49;9.60;99.90
52725;DHT22;38621;52.830;6.914;2022-10-31T07:50:20;9.70;99.90
52725;DHT22;38621;52.830;6.914;2022-10-31T07:52:46;9.70;99.90
52725;DHT22;38621;52.830;6.914;2022-10-31T07:55:12;9.60;99.90
52725;DHT22;38621;52.830;6.914;2022-10-31T07:57:38;9.60;99.90
52725;DHT22;38621;52.830;6.914;2022-10-31T08:00:08;9.60;99.90
52725;DHT22;38621;52.830;6.914;2022-10-31T08:02:35;9.60;99.90
52725;DHT22;38621;52.830;6.914;2022-10-31T08:05:00;9.60;99.90
52725;DHT22;38621;52.830;6.914;2022-10-31T08:07:28;9.70;99.90
52725;DHT22;38621;52.830;6.914;2022-10-31T08:09:54;9.80;99.90
52725;DHT22;38621;52.830;6.914;2022-10-31T08:12:20;9.90;99.90
52725;DHT22;38621;52.830;6.914;2022-10-31T08:14:46;9.90;99.90
52725;DHT22;38621;52.830;6.914;2022-10-31T08:17:11;10.00;99.90
52725;DHT22;38621;52.830;6.914;2022-10-31T08:19:37;10.20;99.90
52725;DHT22;38621;52.830;6.914;2022-10-31T08:22:03;10.30;99.90
52725;DHT22;38621;52.830;6.914;2022-10-31T08:24:28;10.50;99.90
52725;DHT22;38621;52.830;6.914;2022-10-31T08:26:54;10.60;99.90
52725;DHT22;38621;52.830;6.914;2022-10-31T08:29:20;10.70;99.90
52725;DHT22;38621;52.830;6.914;2022-10-31T08:31:45;10.90;99.90
52725;DHT22;38621;52.830;6.914;2022-10-31T08:34:11;11.00;99.90
52725;DHT22;38621;52.830;6.914;2022-10-31T08:36:36;11.20;99.90
52725;DHT22;38621;52.830;6.914;2022-10-31T08:39:02;11.30;99.90
52725;DHT22;38621;52.830;6.914;2022-10-31T08:41:28;11.50;99.90
52725;DHT22;38621;52.830;6.914;2022-10-31T08:43:54;11.60;99.90
52725;DHT22;38621;52.830;6.914;2022-10-31T08:46:20;11.70;99.90
52725;DHT22;38621;52.830;6.914;2022-10-31T08:48:48;11.90;99.90
52725;DHT22;38621;52.830;6.914;2022-10-31T08:51:14;12.20;99.90
52725;DHT22;38621;52.830;6.914;2022-10-31T08:53:40;12.30;99.90
52725;DHT22;38621;52.830;6.914;2022-10-31T08:56:06;12.60;99.90
52725;DHT22;38621;52.830;6.914;2022-10-31T08:58:31;12.80;99.90
52725;DHT22;38621;52.830;6.914;2022-10-31T09:00:59;12.90;99.90
52725;DHT22;38621;52.830;6.914;2022-10-31T09:03:29;13.10;99.90
52725;DHT22;38621;52.830;6.914;2022-10-31T09:05:59;13.30;99.90
52725;DHT22;38621;52.830;6.914;2022-10-31T09:08:25;13.40;99.90
52725;DHT22;38621;52.830;6.914;2022-10-31T09:10:51;13.40;99.90
52725;DHT22;38621;52.830;6.914;2022-10-31T09:13:19;13.40;99.90
52725;DHT22;38621;52.830;6.914;2022-10-31T09:15:46;13.30;99.90
52725;DHT22;38621;52.830;6.914;2022-10-31T09:18:14;13.40;99.90
52725;DHT22;38621;52.830;6.914;2022-10-31T09:20:41;13.40;99.90
52725;DHT22;38621;52.830;6.914;2022-10-31T09:23:16;13.40;99.90
52725;DHT22;38621;52.830;6.914;2022-10-31T09:25:42;13.50;99.90
52725;DHT22;38621;52.830;6.914;2022-10-31T09:28:11;13.60;99.90
52725;DHT22;38621;52.830;6.914;2022-10-31T09:30:37;13.60;99.90
52725;DHT22;38621;52.830;6.914;2022-10-31T09:33:06;13.50;99.90
52725;DHT22;38621;52.830;6.914;2022-10-31T09:35:32;13.50;99.90
52725;DHT22;38621;52.830;6.914;2022-10-31T09:38:05;13.40;99.90
52725;DHT22;38621;52.830;6.914;2022-10-31T09:40:39;13.40;99.90
52725;DHT22;38621;52.830;6.914;2022-10-31T09:46:20;13.40;99.90
52725;DHT22;38621;52.830;6.914;2022-10-31T09:51:41;13.40;99.90
52725;DHT22;38621;52.830;6.914;2022-10-31T09:57:02;13.50;99.90
52725;DHT22;38621;52.830;6.914;2022-10-31T09:59:36;13.50;99.90
52725;DHT22;38621;52.830;6.914;2022-10-31T10:04:37;13.70;99.90
52725;DHT22;38621;52.830;6.914;2022-10-31T10:07:12;13.90;99.90
52725;DHT22;38621;52.830;6.914;2022-10-31T10:09:39;14.00;99.90
52725;DHT22;38621;52.830;6.914;2022-10-31T10:17:51;14.20;99.90
52725;DHT22;38621;52.830;6.914;2022-10-31T10:20:41;14.30;99.90
52725;DHT22;38621;52.830;6.914;2022-10-31T10:26:40;14.40;99.90
52725;DHT22;38621;52.830;6.914;2022-10-31T10:28:49;14.50;99.90
52725;DHT22;38621;52.830;6.914;2022-10-31T10:31:21;14.60;99.90
52725;DHT22;38621;52.830;6.914;2022-10-31T10:34:11;14.70;99.90
52725;DHT22;38621;52.830;6.914;2022-10-31T10:37:04;14.80;99.90
52725;DHT22;38621;52.830;6.914;2022-10-31T10:39:38;14.80;99.90
52725;DHT22;38621;52.830;6.914;2022-10-31T10:42:14;14.90;99.90
52725;DHT22;38621;52.830;6.914;2022-10-31T10:44:59;14.90;99.90
52725;DHT22;38621;52.830;6.914;2022-10-31T10:47:48;14.80;99.90
52725;DHT22;38621;52.830;6.914;2022-10-31T10:50:23;14.70;99.90
52725;DHT22;38621;52.830;6.914;2022-10-31T10:53:02;14.70;99.90
52725;DHT22;38621;52.830;6.914;2022-10-31T10:56:01;14.60;99.90
52725;DHT22;38621;52.830;6.914;2022-10-31T10:58:29;14.60;99.90
52725;DHT22;38621;52.830;6.914;2022-10-31T11:00:55;14.50;99.90
52725;DHT22;38621;52.830;6.914;2022-10-31T11:03:21;14.50;99.90
52725;DHT22;38621;52.830;6.914;2022-10-31T11:13:35;14.70;99.90
52725;DHT22;38621;52.830;6.914;2022-10-31T11:16:05;14.70;99.90
52725;DHT22;38621;52.830;6.914;2022-10-31T11:18:34;14.70;99.90
52725;DHT22;38621;52.830;6.914;2022-10-31T11:21:03;14.80;99.90
52725;DHT22;38621;52.830;6.914;2022-10-31T11:23:31;14.80;99.90
52725;DHT22;38621;52.830;6.914;2022-10-31T11:28:25;14.70;99.90
52725;DHT22;38621;52.830;6.914;2022-10-31T11:30:56;14.70;99.90
52725;DHT22;38621;52.830;6.914;2022-10-31T11:36:30;14.70;99.90
52725;DHT22;38621;52.830;6.914;2022-10-31T11:38:57;14.70;99.90
52725;DHT22;38621;52.830;6.914;2022-10-31T11:41:35;14.70;99.90
52725;DHT22;38621;52.830;6.914;2022-10-31T11:47:00;14.60;99.90
52725;DHT22;38621;52.830;6.914;2022-10-31T11:49:37;14.70;99.90
52725;DHT22;38621;52.830;6.914;2022-10-31T11:52:20;14.70;99.90
52725;DHT22;38621;52.830;6.914;2022-10-31T11:54:52;14.70;99.90
52725;DHT22;38621;52.830;6.914;2022-10-31T11:57:42;14.80;99.90
52725;DHT22;38621;52.830;6.914;2022-10-31T12:00:34;14.80;99.90
52725;DHT22;38621;52.830;6.914;2022-10-31T12:05:49;14.90;99.90
52725;DHT22;38621;52.830;6.914;2022-10-31T12:08:17;15.00;99.90
52725;DHT22;38621;52.830;6.914;2022-10-31T12:13:58;15.00;99.90
52725;DHT22;38621;52.830;6.914;2022-10-31T12:24:33;15.00;99.90
52725;DHT22;38621;52.830;6.914;2022-10-31T12:41:58;15.20;99.90
52725;DHT22;38621;52.830;6.914;2022-10-31T12:44:32;15.20;99.90
52725;DHT22;38621;52.830;6.914;2022-10-31T12:47:31;15.20;99.90
52725;DHT22;38621;52.830;6.914;2022-10-31T12:50:28;15.30;99.90
52725;DHT22;38621;52.830;6.914;2022-10-31T12:59:00;15.50;99.90
52725;DHT22;38621;52.830;6.914;2022-10-31T13:04:24;15.60;99.90
52725;DHT22;38621;52.830;6.914;2022-10-31T13:06:22;15.60;99.90
52725;DHT22;38621;52.830;6.914;2022-10-31T13:08:59;15.70;99.90
52725;DHT22;38621;52.830;6.914;2022-10-31T13:11:40;15.70;99.90
52725;DHT22;38621;52.830;6.914;2022-10-31T13:14:29;15.80;99.90
52725;DHT22;38621;52.830;6.914;2022-10-31T13:17:00;15.80;99.90
52725;DHT22;38621;52.830;6.914;2022-10-31T13:22:18;15.80;99.90
52725;DHT22;38621;52.830;6.914;2022-10-31T13:25:03;15.70;99.90
52725;DHT22;38621;52.830;6.914;2022-10-31T13:30:18;15.70;99.90
52725;DHT22;38621;52.830;6.914;2022-10-31T13:33:02;15.70;99.90
52725;DHT22;38621;52.830;6.914;2022-10-31T13:35:57;15.70;99.90
52725;DHT22;38621;52.830;6.914;2022-10-31T13:38:46;15.60;99.90
52725;DHT22;38621;52.830;6.914;2022-10-31T13:44:27;15.60;99.90
52725;DHT22;38621;52.830;6.914;2022-10-31T13:46:57;15.60;99.90
52725;DHT22;38621;52.830;6.914;2022-10-31T13:51:52;15.70;99.90
52725;DHT22;38621;52.830;6.914;2022-10-31T13:54:34;15.60;99.90
52725;DHT22;38621;52.830;6.914;2022-10-31T13:57:00;15.60;99.90
52725;DHT22;38621;52.830;6.914;2022-10-31T13:59:28;15.60;99.90
52725;DHT22;38621;52.830;6.914;2022-10-31T14:02:00;15.50;99.90
52725;DHT22;38621;52.830;6.914;2022-10-31T14:04:59;15.50;99.90
52725;DHT22;38621;52.830;6.914;2022-10-31T14:07:26;15.40;99.90
52725;DHT22;38621;52.830;6.914;2022-10-31T14:10:00;15.40;99.90
52725;DHT22;38621;52.830;6.914;2022-10-31T14:12:44;15.40;99.90
52725;DHT22;38621;52.830;6.914;2022-10-31T14:15:22;15.40;99.90
52725;DHT22;38621;52.830;6.914;2022-10-31T14:17:58;15.30;99.90
52725;DHT22;38621;52.830;6.914;2022-10-31T14:20:43;15.30;99.90
52725;DHT22;38621;52.830;6.914;2022-10-31T14:23:35;15.30;99.90
52725;DHT22;38621;52.830;6.914;2022-10-31T14:28:47;15.30;99.90
52725;DHT22;38621;52.830;6.914;2022-10-31T14:31:38;15.30;99.90
52725;DHT22;38621;52.830;6.914;2022-10-31T14:34:24;15.20;99.90
52725;DHT22;38621;52.830;6.914;2022-10-31T14:45:53;15.10;99.90
52725;DHT22;38621;52.830;6.914;2022-10-31T14:48:45;15.10;99.90
52725;DHT22;38621;52.830;6.914;2022-10-31T14:51:21;15.00;99.90
52725;DHT22;38621;52.830;6.914;2022-10-31T14:53:50;15.00;99.90
52725;DHT22;38621;52.830;6.914;2022-10-31T14:56:25;15.00;99.90
52725;DHT22;38621;52.830;6.914;2022-10-31T14:58:54;14.90;99.90
52725;DHT22;38621;52.830;6.914;2022-10-31T15:01:31;14.90;99.90
52725;DHT22;38621;52.830;6.914;2022-10-31T15:04:20;14.90;99.90
52725;DHT22;38621;52.830;6.914;2022-10-31T15:06:54;14.90;99.90
52725;DHT22;38621;52.830;6.914;2022-10-31T15:09:34;14.90;99.90
52725;DHT22;38621;52.830;6.914;2022-10-31T15:12:16;14.80;99.90
52725;DHT22;38621;52.830;6.914;2022-10-31T15:14:42;14.80;99.90
52725;DHT22;38621;52.830;6.914;2022-10-31T15:17:10;14.80;99.90
52725;DHT22;38621;52.830;6.914;2022-10-31T15:19:37;14.80;99.90
52725;DHT22;38621;52.830;6.914;2022-10-31T15:22:03;14.80;99.90
52725;DHT22;38621;52.830;6.914;2022-10-31T15:24:34;14.70;99.90
52725;DHT22;38621;52.830;6.914;2022-10-31T15:27:01;14.70;99.90
52725;DHT22;38621;52.830;6.914;2022-10-31T15:29:27;14.70;99.90
52725;DHT22;38621;52.830;6.914;2022-10-31T15:31:58;14.70;99.90
52725;DHT22;38621;52.830;6.914;2022-10-31T15:34:51;14.60;99.90
52725;DHT22;38621;52.830;6.914;2022-10-31T15:37:20;14.60;99.90
52725;DHT22;38621;52.830;6.914;2022-10-31T15:39:48;14.60;99.90
52725;DHT22;38621;52.830;6.914;2022-10-31T15:42:25;14.60;99.90
52725;DHT22;38621;52.830;6.914;2022-10-31T15:44:59;14.50;99.90
52725;DHT22;38621;52.830;6.914;2022-10-31T15:47:25;14.50;99.90
52725;DHT22;38621;52.830;6.914;2022-10-31T15:49:54;14.40;99.90
52725;DHT22;38621;52.830;6.914;2022-10-31T15:52:50;14.40;99.90
52725;DHT22;38621;52.830;6.914;2022-10-31T15:55:20;14.40;99.90
52725;DHT22;38621;52.830;6.914;2022-10-31T15:57:51;14.30;99.90
52725;DHT22;38621;52.830;6.914;2022-10-31T16:00:31;14.20;99.90
52725;DHT22;38621;52.830;6.914;2022-10-31T16:05:59;14.20;99.90
52725;DHT22;38621;52.830;6.914;2022-10-31T16:10:55;14.10;99.90
52725;DHT22;38621;52.830;6.914;2022-10-31T16:13:26;14.00;99.90
52725;DHT22;38621;52.830;6.914;2022-10-31T16:15:57;14.00;99.90
52725;DHT22;38621;52.830;6.914;2022-10-31T16:18:25;13.90;99.90
52725;DHT22;38621;52.830;6.914;2022-10-31T16:20:52;13.90;99.90
52725;DHT22;38621;52.830;6.914;2022-10-31T16:23:24;13.90;99.90
52725;DHT22;38621;52.830;6.914;2022-10-31T16:25:51;13.80;99.90
52725;DHT22;38621;52.830;6.914;2022-10-31T16:28:23;13.80;99.90
52725;DHT22;38621;52.830;6.914;2022-10-31T16:30:52;13.80;99.90
52725;DHT22;38621;52.830;6.914;2022-10-31T16:33:34;13.80;99.90
52725;DHT22;38621;52.830;6.914;2022-10-31T16:38:54;13.70;99.90
52725;DHT22;38621;52.830;6.914;2022-10-31T16:41:21;13.70;99.90
52725;DHT22;38621;52.830;6.914;2022-10-31T16:43:48;13.70;99.90
52725;DHT22;38621;52.830;6.914;2022-10-31T16:46:26;13.70;99.90
52725;DHT22;38621;52.830;6.914;2022-10-31T16:48:53;13.70;99.90
52725;DHT22;38621;52.830;6.914;2022-10-31T16:51:19;13.70;99.90
52725;DHT22;38621;52.830;6.914;2022-10-31T16:53:45;13.70;99.90
52725;DHT22;38621;52.830;6.914;2022-10-31T16:56:32;13.70;99.90
52725;DHT22;38621;52.830;6.914;2022-10-31T16:59:03;13.70;99.90
52725;DHT22;38621;52.830;6.914;2022-10-31T17:01:30;13.70;99.90
52725;DHT22;38621;52.830;6.914;2022-10-31T17:03:56;13.70;99.90
52725;DHT22;38621;52.830;6.914;2022-10-31T17:06:22;13.80;99.90
52725;DHT22;38621;52.830;6.914;2022-10-31T17:08:48;13.80;99.90
52725;DHT22;38621;52.830;6.914;2022-10-31T17:11:18;13.80;99.90
52725;DHT22;38621;52.830;6.914;2022-10-31T17:13:44;13.80;99.90
52725;DHT22;38621;52.830;6.914;2022-10-31T17:16:12;13.80;99.90
52725;DHT22;38621;52.830;6.914;2022-10-31T17:18:38;13.80;99.90
52725;DHT22;38621;52.830;6.914;2022-10-31T17:21:04;13.90;99.90
52725;DHT22;38621;52.830;6.914;2022-10-31T17:23:33;13.90;99.90
52725;DHT22;38621;52.830;6.914;2022-10-31T17:25:59;13.90;99.90
52725;DHT22;38621;52.830;6.914;2022-10-31T17:28:25;13.80;99.90
52725;DHT22;38621;52.830;6.914;2022-10-31T17:30:53;13.80;99.90
52725;DHT22;38621;52.830;6.914;2022-10-31T17:33:20;13.80;99.90
52725;DHT22;38621;52.830;6.914;2022-10-31T17:35:46;13.80;99.90
52725;DHT22;38621;52.830;6.914;2022-10-31T17:38:12;13.90;99.90
52725;DHT22;38621;52.830;6.914;2022-10-31T17:40:39;13.80;99.90
52725;DHT22;38621;52.830;6.914;2022-10-31T17:43:06;13.90;99.90
52725;DHT22;38621;52.830;6.914;2022-10-31T17:45:36;13.90;99.90
52725;DHT22;38621;52.830;6.914;2022-10-31T17:48:02;13.90;99.90
52725;DHT22;38621;52.830;6.914;2022-10-31T17:50:28;13.90;99.90
52725;DHT22;38621;52.830;6.914;2022-10-31T17:52:54;14.00;99.90
52725;DHT22;38621;52.830;6.914;2022-10-31T17:55:19;13.90;99.90
52725;DHT22;38621;52.830;6.914;2022-10-31T17:57:45;13.90;99.90
52725;DHT22;38621;52.830;6.914;2022-10-31T18:00:14;14.00;99.90
52725;DHT22;38621;52.830;6.914;2022-10-31T18:02:40;14.00;99.90
52725;DHT22;38621;52.830;6.914;2022-10-31T18:05:06;13.90;99.90
52725;DHT22;38621;52.830;6.914;2022-10-31T18:07:33;14.00;99.90
52725;DHT22;38621;52.830;6.914;2022-10-31T18:09:59;14.00;99.90
52725;DHT22;38621;52.830;6.914;2022-10-31T18:12:25;14.00;99.90
52725;DHT22;38621;52.830;6.914;2022-10-31T18:14:52;14.00;99.90